Aviation Digital Data Service (ADDS)

Output produced by METARs form (1337 UTC 19 April 2018)
found at http://aviationweather.gov/adds/metars/
 
KJHW 191238Z 1913/2012 34010KT 2SM BR VCSH OVC003 
     TEMPO 1913/1915 1SM -SN 
     FM191600 33015G25KT P6SM VCSH OVC012 
     FM191900 31015G25KT 2SM -SN OVC015 
     FM200600 32012G20KT P6SM VCSH OVC015 AMD LTD TO CLD VIS AND WIND